Auburn, Illinois
Current Conditions -  °F | °C
As of 3:52 AM on Sunday 26 Oct 2014 (Local Time) from KSPI Reporting Station
Clear Clear  
Wind Chill:   Ceiling: Unl
Heat Index:   Visibility: 10mi
Dew Point:   Wind: 3mph
Humidity: 71%   Direction: 20°NNE
Pressure: 30.03"   Gusts: NA
Location:  39.59°N, 89.75°W
Report Text: KSPI 260852Z 02003KT 10SM CLR 08/03 A3003 RMK AO2 SLP166 T00830033 58003
Loading
Personal Weather Stations






























Interactive Weather Map
Tropical Storm Tracking
New forecast layout! Learn more

10-Day Weather Forecast

Advertisements
Track Severe Weather on mobile